createdAt,value
2018-09-09T00:01:47.383Z,22.56
2018-09-09T00:04:16.628Z,22.54
2018-09-09T00:06:45.855Z,22.57
2018-09-09T00:09:19.346Z,22.60
2018-09-09T00:11:48.564Z,22.63
2018-09-09T00:14:18.055Z,22.66
2018-09-09T00:16:46.919Z,22.73
2018-09-09T00:19:16.088Z,22.72
2018-09-09T00:21:45.302Z,22.73
2018-09-09T00:24:14.787Z,22.73
2018-09-09T00:26:44.159Z,22.74
2018-09-09T00:29:13.501Z,22.77
2018-09-09T00:31:42.748Z,22.76
2018-09-09T00:34:11.986Z,22.79
2018-09-09T00:36:40.888Z,22.85
2018-09-09T00:39:10.240Z,22.88
2018-09-09T00:41:39.602Z,22.89
2018-09-09T00:44:08.780Z,22.90
2018-09-09T00:46:37.917Z,22.92
2018-09-09T00:49:12.584Z,22.85
2018-09-09T00:51:46.804Z,22.94
2018-09-09T00:54:15.992Z,22.95
2018-09-09T00:56:45.343Z,22.92
2018-09-09T00:59:14.704Z,22.86
2018-09-09T01:01:44.155Z,22.82
2018-09-09T01:04:13.446Z,22.76
2018-09-09T01:06:42.715Z,22.71
2018-09-09T01:09:12.430Z,22.65
2018-09-09T01:11:41.859Z,22.58
2018-09-09T01:14:11.116Z,22.54
2018-09-09T01:16:40.463Z,22.51
2018-09-09T01:19:09.649Z,22.53
2018-09-09T01:21:39.002Z,22.57
2018-09-09T01:24:08.211Z,22.47
2018-09-09T01:26:37.544Z,22.49
2018-09-09T01:29:06.940Z,22.46
2018-09-09T01:31:36.409Z,22.37
2018-09-09T01:34:05.611Z,22.42
2018-09-09T01:36:34.624Z,22.34
2018-09-09T01:39:04.635Z,22.35
2018-09-09T01:41:33.847Z,22.23
2018-09-09T01:44:03.154Z,22.16
2018-09-09T01:46:32.662Z,22.11
2018-09-09T01:49:01.689Z,22.08
2018-09-09T01:51:31.200Z,21.97
2018-09-09T01:54:00.197Z,21.91
2018-09-09T01:56:29.500Z,21.87
2018-09-09T01:58:58.748Z,21.79
2018-09-09T02:01:28.009Z,21.71
2018-09-09T02:03:56.999Z,21.70
2018-09-09T02:06:26.404Z,21.68
2018-09-09T02:08:55.562Z,21.69
2018-09-09T02:11:24.838Z,21.69
2018-09-09T02:13:54.342Z,21.65
2018-09-09T02:16:23.697Z,21.63
2018-09-09T02:18:52.655Z,21.65
2018-09-09T02:21:21.634Z,21.69
2018-09-09T02:23:51.043Z,21.70
2018-09-09T02:26:20.472Z,21.76
2018-09-09T02:28:49.889Z,21.79
2018-09-09T02:31:19.372Z,21.80
2018-09-09T02:33:48.827Z,21.83
2018-09-09T02:36:18.182Z,21.82
2018-09-09T02:38:47.391Z,21.77
2018-09-09T02:41:16.695Z,21.74
2018-09-09T02:43:45.941Z,21.66
2018-09-09T02:46:15.293Z,21.68
2018-09-09T02:48:44.403Z,21.72
2018-09-09T02:51:13.787Z,21.76
2018-09-09T02:53:43.159Z,21.72
2018-09-09T02:56:12.468Z,21.76
2018-09-09T02:58:41.975Z,21.73
2018-09-09T03:01:11.079Z,21.75
2018-09-09T03:03:40.152Z,21.82
2018-09-09T03:06:09.456Z,21.78
2018-09-09T03:08:38.803Z,21.68
2018-09-09T03:11:12.894Z,21.69
2018-09-09T03:13:42.907Z,21.72
2018-09-09T03:16:12.357Z,21.68
2018-09-09T03:18:42.335Z,21.73
2018-09-09T03:21:11.258Z,21.80
2018-09-09T03:23:40.648Z,21.78
2018-09-09T03:26:10.203Z,21.72
2018-09-09T03:28:39.426Z,21.68
2018-09-09T03:31:08.808Z,21.66
2018-09-09T03:33:38.150Z,21.69
2018-09-09T03:36:07.451Z,21.70
2018-09-09T03:38:36.705Z,21.66
2018-09-09T03:41:05.856Z,21.65
2018-09-09T03:43:35.092Z,21.60
2018-09-09T03:46:04.392Z,21.54
2018-09-09T03:48:33.843Z,21.52
2018-09-09T03:51:02.963Z,21.50
2018-09-09T03:53:31.979Z,21.49
2018-09-09T03:56:01.284Z,21.49
2018-09-09T03:58:30.341Z,21.46
2018-09-09T04:00:59.348Z,21.44
2018-09-09T04:03:28.727Z,21.41
2018-09-09T04:05:58.327Z,21.43
2018-09-09T04:08:27.837Z,21.39
2018-09-09T04:10:57.215Z,21.39
2018-09-09T04:13:26.411Z,21.43
2018-09-09T04:15:55.590Z,21.48
2018-09-09T04:18:24.859Z,21.47
2018-09-09T04:20:54.225Z,21.48
2018-09-09T04:23:23.532Z,21.51
2018-09-09T04:25:52.696Z,21.54
2018-09-09T04:28:22.067Z,21.55
2018-09-09T04:30:51.286Z,21.65
2018-09-09T04:33:20.670Z,21.65
2018-09-09T04:35:49.936Z,21.63
2018-09-09T04:38:19.140Z,21.60
2018-09-09T04:40:48.503Z,21.61
2018-09-09T04:43:17.963Z,21.60
2018-09-09T04:45:47.208Z,21.68
2018-09-09T04:48:16.231Z,21.67
2018-09-09T04:50:45.404Z,21.69
2018-09-09T04:53:14.687Z,21.74
2018-09-09T04:55:44.097Z,21.74
2018-09-09T04:58:13.386Z,21.81
2018-09-09T05:00:42.655Z,21.80
2018-09-09T05:03:11.908Z,21.87
2018-09-09T05:05:40.870Z,21.86
2018-09-09T05:08:10.085Z,21.89
2018-09-09T05:10:39.357Z,21.97
2018-09-09T05:13:08.460Z,21.98
2018-09-09T05:15:37.627Z,22.04
2018-09-09T05:18:06.798Z,22.11
2018-09-09T05:20:35.926Z,22.14
2018-09-09T05:23:05.216Z,22.17
2018-09-09T05:25:34.344Z,22.26
2018-09-09T05:28:03.654Z,22.27
2018-09-09T05:30:32.997Z,22.28
2018-09-09T05:33:01.955Z,22.28
2018-09-09T05:35:31.415Z,22.26
2018-09-09T05:38:00.426Z,22.27
2018-09-09T05:40:29.768Z,22.35
2018-09-09T05:42:59.040Z,22.39
2018-09-09T05:45:28.155Z,22.48
2018-09-09T05:47:57.533Z,22.52
2018-09-09T05:50:26.520Z,22.61
2018-09-09T05:52:55.541Z,22.64
2018-09-09T05:55:24.878Z,22.64
2018-09-09T05:57:54.294Z,22.68
2018-09-09T06:00:23.579Z,22.72
2018-09-09T06:02:52.917Z,22.78
2018-09-09T06:05:22.324Z,22.78
2018-09-09T06:07:51.214Z,22.80
2018-09-09T06:10:20.440Z,22.86
2018-09-09T06:12:49.748Z,22.88
2018-09-09T06:15:18.893Z,22.98
2018-09-09T06:17:48.164Z,22.98
2018-09-09T06:20:17.444Z,23.05
2018-09-09T06:22:46.646Z,23.11
2018-09-09T06:25:15.771Z,23.21
2018-09-09T06:27:44.936Z,23.35
2018-09-09T06:30:14.243Z,23.51
2018-09-09T06:32:43.585Z,23.73
2018-09-09T06:35:12.783Z,23.87
2018-09-09T06:37:42.108Z,23.90
2018-09-09T06:40:11.428Z,23.93
2018-09-09T06:42:40.394Z,23.99
2018-09-09T06:45:09.671Z,23.96
2018-09-09T06:47:39.020Z,23.91
2018-09-09T06:50:08.441Z,23.87
2018-09-09T06:52:37.683Z,23.92
2018-09-09T06:55:07.247Z,23.99
2018-09-09T06:57:36.521Z,24.07
2018-09-09T07:00:05.761Z,24.05
2018-09-09T07:02:35.120Z,24.20
2018-09-09T07:05:04.168Z,24.26
2018-09-09T07:07:33.390Z,24.27
2018-09-09T07:10:02.712Z,24.27
2018-09-09T07:12:31.920Z,24.30
2018-09-09T07:15:01.137Z,24.36
2018-09-09T07:17:30.302Z,24.38
2018-09-09T07:19:59.449Z,24.45
2018-09-09T07:22:28.693Z,24.45
2018-09-09T07:24:57.871Z,24.42
2018-09-09T07:27:27.088Z,24.52
2018-09-09T07:29:56.544Z,24.59
2018-09-09T07:32:25.784Z,24.76
2018-09-09T07:34:55.188Z,24.88
2018-09-09T07:37:24.406Z,24.96
2018-09-09T07:39:53.683Z,25.13
2018-09-09T07:42:23.044Z,25.70
2018-09-09T07:44:52.510Z,26.15
2018-09-09T07:47:21.477Z,26.10
2018-09-09T07:49:50.667Z,26.49
2018-09-09T07:52:19.942Z,27.17
2018-09-09T07:54:49.163Z,27.61
2018-09-09T07:57:18.526Z,28.24
2018-09-09T07:59:47.875Z,28.74
2018-09-09T08:02:17.222Z,29.20
2018-09-09T08:04:46.525Z,29.77
2018-09-09T08:07:16.026Z,30.17
2018-09-09T08:09:45.222Z,30.44
2018-09-09T08:12:14.725Z,30.46
2018-09-09T08:14:43.979Z,30.42
2018-09-09T08:17:13.267Z,30.02
2018-09-09T08:19:42.476Z,29.99
2018-09-09T08:22:11.500Z,30.00
2018-09-09T08:24:40.549Z,29.79
2018-09-09T08:27:09.854Z,29.95
2018-09-09T08:29:39.167Z,30.17
2018-09-09T08:32:08.439Z,30.31
2018-09-09T08:34:37.918Z,30.47
2018-09-09T08:37:07.204Z,30.60
2018-09-09T08:39:36.195Z,30.58
2018-09-09T08:42:05.114Z,30.42
2018-09-09T08:44:34.482Z,30.31
2018-09-09T08:47:03.836Z,30.20
2018-09-09T08:49:33.188Z,30.13
2018-09-09T08:52:02.618Z,30.15
2018-09-09T08:54:32.093Z,30.36
2018-09-09T08:57:01.470Z,30.50
2018-09-09T08:59:30.739Z,30.61
2018-09-09T09:01:59.943Z,30.50
2018-09-09T09:04:29.251Z,30.41
2018-09-09T09:06:58.464Z,30.27
2018-09-09T09:09:27.670Z,30.23
2018-09-09T09:11:57.031Z,30.21
2018-09-09T09:14:26.333Z,30.16
2018-09-09T09:16:55.291Z,30.01
2018-09-09T09:19:24.477Z,29.83
2018-09-09T09:21:53.679Z,29.79
2018-09-09T09:24:23.168Z,29.86
2018-09-09T09:26:52.516Z,30.11
2018-09-09T09:29:21.479Z,30.47
2018-09-09T09:31:50.526Z,30.83
2018-09-09T09:34:19.545Z,31.49
2018-09-09T09:36:48.765Z,32.41
2018-09-09T09:39:18.011Z,32.25
2018-09-09T09:41:47.283Z,32.01
2018-09-09T09:44:16.743Z,32.80
2018-09-09T09:46:46.113Z,33.49
2018-09-09T09:49:15.752Z,34.03
2018-09-09T09:51:45.044Z,34.69
2018-09-09T09:54:14.072Z,35.21
2018-09-09T09:56:43.129Z,35.28
2018-09-09T09:59:12.107Z,35.74
2018-09-09T10:01:41.317Z,35.78
2018-09-09T10:04:10.309Z,35.30
2018-09-09T10:06:39.500Z,35.55
2018-09-09T10:09:08.747Z,35.72
2018-09-09T10:11:37.967Z,37.36
2018-09-09T10:14:07.349Z,38.28
2018-09-09T10:16:36.606Z,38.12
2018-09-09T10:19:05.720Z,37.45
2018-09-09T10:21:34.534Z,37.96
2018-09-09T10:24:03.968Z,38.57
2018-09-09T10:26:33.361Z,39.74
2018-09-09T10:29:02.983Z,41.35
2018-09-09T10:31:32.503Z,42.90
2018-09-09T10:34:02.020Z,43.95
2018-09-09T10:36:31.209Z,44.65
2018-09-09T10:39:00.601Z,45.56
2018-09-09T10:41:29.728Z,44.65
2018-09-09T10:43:59.086Z,42.19
2018-09-09T10:46:28.010Z,40.61
2018-09-09T10:48:57.131Z,41.68
2018-09-09T10:51:26.263Z,43.26
2018-09-09T10:53:55.254Z,43.86
2018-09-09T10:56:24.619Z,44.24
2018-09-09T10:58:53.835Z,45.07
2018-09-09T11:01:22.947Z,45.58
2018-09-09T11:03:52.351Z,44.88
2018-09-09T11:06:21.650Z,44.61
2018-09-09T11:08:51.013Z,44.18
2018-09-09T11:11:20.232Z,44.94
2018-09-09T11:13:49.393Z,46.12
2018-09-09T11:16:18.738Z,47.06
2018-09-09T11:18:47.965Z,45.94
2018-09-09T11:21:17.460Z,44.92
2018-09-09T11:23:46.915Z,44.01
2018-09-09T11:26:16.219Z,42.00
2018-09-09T11:28:45.361Z,41.51
2018-09-09T11:31:14.830Z,42.04
2018-09-09T11:33:44.272Z,43.32
2018-09-09T11:36:14.685Z,44.08
2018-09-09T11:38:44.275Z,44.38
2018-09-09T11:41:13.548Z,43.89
2018-09-09T11:43:42.886Z,41.97
2018-09-09T11:46:12.079Z,40.39
2018-09-09T11:48:41.372Z,40.77
2018-09-09T11:51:10.613Z,41.95
2018-09-09T11:53:39.867Z,41.27
2018-09-09T11:56:09.091Z,40.82
2018-09-09T11:58:39.211Z,40.91
2018-09-09T12:01:08.184Z,39.74
2018-09-09T12:03:37.485Z,38.73
2018-09-09T12:06:06.823Z,38.63
2018-09-09T12:08:36.179Z,39.42
2018-09-09T12:11:05.404Z,39.46
2018-09-09T12:13:34.616Z,39.29
2018-09-09T12:16:03.888Z,39.20
2018-09-09T12:18:33.340Z,40.07
2018-09-09T12:21:02.603Z,41.56
2018-09-09T12:23:31.933Z,42.78
2018-09-09T12:26:01.129Z,43.82
2018-09-09T12:28:30.231Z,44.86
2018-09-09T12:30:59.237Z,43.78
2018-09-09T12:33:28.516Z,42.36
2018-09-09T12:35:57.819Z,42.42
2018-09-09T12:38:27.058Z,42.70
2018-09-09T12:40:56.412Z,41.43
2018-09-09T12:43:30.927Z,41.01
2018-09-09T12:46:04.954Z,40.61
2018-09-09T12:48:39.230Z,39.59
2018-09-09T12:51:09.526Z,39.38
2018-09-09T12:53:38.783Z,39.38
2018-09-09T12:56:08.123Z,39.24
2018-09-09T12:58:37.276Z,38.56
2018-09-09T13:01:06.984Z,38.54
2018-09-09T13:03:36.128Z,38.13
2018-09-09T13:06:05.590Z,37.94
2018-09-09T13:08:34.692Z,38.42
2018-09-09T13:11:03.957Z,39.47
2018-09-09T13:13:32.935Z,40.85
2018-09-09T13:16:02.134Z,42.17
2018-09-09T13:18:31.508Z,42.48
2018-09-09T13:21:00.436Z,42.90
2018-09-09T13:23:29.679Z,42.99
2018-09-09T13:25:58.902Z,42.78
2018-09-09T13:28:28.076Z,42.54
2018-09-09T13:30:57.388Z,41.44
2018-09-09T13:33:26.835Z,39.10
2018-09-09T13:35:56.396Z,37.47
2018-09-09T13:38:25.740Z,37.06
2018-09-09T13:40:54.611Z,36.64
2018-09-09T13:43:24.034Z,36.33
2018-09-09T13:45:53.160Z,35.76
2018-09-09T13:48:22.435Z,35.30
2018-09-09T13:50:51.628Z,34.74
2018-09-09T13:53:20.887Z,34.57
2018-09-09T13:55:49.991Z,34.47
2018-09-09T13:58:19.538Z,34.13
2018-09-09T14:00:48.872Z,33.52
2018-09-09T14:03:18.437Z,33.00
2018-09-09T14:05:47.763Z,32.65
2018-09-09T14:08:17.072Z,32.40
2018-09-09T14:10:46.259Z,32.31
2018-09-09T14:13:15.167Z,32.15
2018-09-09T14:15:44.572Z,32.01
2018-09-09T14:18:13.764Z,31.89
2018-09-09T14:20:42.767Z,31.80
2018-09-09T14:23:11.863Z,31.82
2018-09-09T14:25:41.194Z,31.81
2018-09-09T14:28:10.497Z,31.78
2018-09-09T14:30:39.776Z,31.72
2018-09-09T14:33:09.110Z,31.68
2018-09-09T14:35:38.656Z,31.63
2018-09-09T14:38:07.699Z,31.59
2018-09-09T14:40:37.149Z,31.33
2018-09-09T14:43:06.456Z,31.11
2018-09-09T14:45:35.857Z,31.00
2018-09-09T14:48:05.122Z,30.90
2018-09-09T14:50:34.490Z,30.82
2018-09-09T14:53:03.862Z,30.72
2018-09-09T14:55:33.115Z,30.64
2018-09-09T14:58:02.440Z,30.52
2018-09-09T15:00:31.792Z,30.43
2018-09-09T15:03:01.160Z,30.29
2018-09-09T15:05:30.454Z,30.17
2018-09-09T15:07:59.812Z,30.03
2018-09-09T15:10:29.087Z,29.91
2018-09-09T15:12:57.991Z,29.80
2018-09-09T15:15:27.231Z,29.79
2018-09-09T15:17:56.575Z,29.74
2018-09-09T15:20:25.689Z,29.66
2018-09-09T15:22:54.884Z,29.62
2018-09-09T15:25:24.497Z,29.59
2018-09-09T15:27:53.896Z,29.67
2018-09-09T15:30:23.086Z,29.66
2018-09-09T15:32:52.334Z,29.51
2018-09-09T15:35:21.727Z,29.37
2018-09-09T15:37:50.814Z,29.27
2018-09-09T15:40:19.881Z,29.21
2018-09-09T15:42:48.855Z,29.16
2018-09-09T15:45:18.230Z,29.05
2018-09-09T15:47:47.212Z,28.88
2018-09-09T15:50:16.592Z,28.79
2018-09-09T15:52:45.818Z,28.60
2018-09-09T15:55:15.087Z,28.49
2018-09-09T15:57:44.292Z,28.38
2018-09-09T16:00:13.836Z,28.20
2018-09-09T16:02:42.838Z,28.07
2018-09-09T16:05:12.282Z,27.97
2018-09-09T16:07:41.720Z,27.82
2018-09-09T16:10:11.075Z,27.66
2018-09-09T16:12:40.045Z,27.51
2018-09-09T16:15:09.207Z,27.43
2018-09-09T16:17:38.528Z,27.28
2018-09-09T16:20:08.361Z,27.16
2018-09-09T16:22:37.743Z,26.96
2018-09-09T16:25:07.091Z,26.86
2018-09-09T16:27:36.389Z,26.72
2018-09-09T16:30:06.421Z,26.62
2018-09-09T16:32:35.852Z,26.51
2018-09-09T16:35:05.076Z,26.38
2018-09-09T16:37:34.258Z,26.30
2018-09-09T16:40:03.452Z,26.26
2018-09-09T16:42:33.091Z,26.22
2018-09-09T16:45:02.702Z,26.15
2018-09-09T16:47:33.083Z,26.16
2018-09-09T16:50:02.431Z,26.22
2018-09-09T16:52:31.519Z,26.24
2018-09-09T16:55:00.920Z,26.20
2018-09-09T16:57:30.136Z,26.28
2018-09-09T16:59:59.389Z,26.26
2018-09-09T17:02:28.564Z,26.26
2018-09-09T17:04:57.927Z,26.24
2018-09-09T17:07:27.117Z,26.23
2018-09-09T17:09:56.563Z,26.20
2018-09-09T17:12:25.460Z,26.17
2018-09-09T17:14:54.738Z,26.12
2018-09-09T17:17:24.164Z,26.07
2018-09-09T17:19:53.103Z,26.04
2018-09-09T17:22:22.492Z,25.97
2018-09-09T17:24:51.566Z,25.97
2018-09-09T17:27:20.796Z,25.93
2018-09-09T17:29:49.780Z,25.82
2018-09-09T17:32:19.213Z,25.79
2018-09-09T17:34:48.592Z,25.76
2018-09-09T17:37:17.660Z,25.71
2018-09-09T17:39:47.571Z,25.66
2018-09-09T17:42:16.664Z,25.63
2018-09-09T17:44:46.135Z,25.57
2018-09-09T17:47:15.604Z,25.58
2018-09-09T17:49:44.985Z,25.53
2018-09-09T17:52:14.330Z,25.46
2018-09-09T17:54:43.357Z,25.41
2018-09-09T17:57:12.687Z,25.38
2018-09-09T17:59:42.063Z,25.31
2018-09-09T18:02:11.440Z,25.25
2018-09-09T18:04:40.852Z,25.26
2018-09-09T18:07:10.036Z,25.28
2018-09-09T18:09:39.377Z,25.21
2018-09-09T18:12:08.666Z,25.18
2018-09-09T18:14:37.739Z,25.22
2018-09-09T18:17:07.108Z,25.27
2018-09-09T18:19:36.273Z,25.32
2018-09-09T18:22:05.525Z,25.36
2018-09-09T18:24:35.367Z,25.34
2018-09-09T18:27:04.384Z,25.33
2018-09-09T18:29:33.927Z,25.34
2018-09-09T18:32:02.891Z,25.31
2018-09-09T18:34:32.019Z,25.30
2018-09-09T18:37:01.368Z,25.26
2018-09-09T18:39:30.671Z,25.20
2018-09-09T18:42:00.060Z,25.10
2018-09-09T18:44:29.555Z,25.04
2018-09-09T18:46:58.473Z,25.06
2018-09-09T18:49:27.915Z,24.99
2018-09-09T18:51:57.208Z,24.89
2018-09-09T18:54:26.560Z,24.90
2018-09-09T18:56:55.624Z,24.94
2018-09-09T18:59:24.932Z,24.88
2018-09-09T19:01:53.950Z,24.86
2018-09-09T19:04:22.905Z,24.85
2018-09-09T19:06:52.332Z,24.81
2018-09-09T19:09:21.588Z,24.72
2018-09-09T19:11:50.738Z,24.75
2018-09-09T19:14:20.542Z,24.76
2018-09-09T19:16:50.068Z,24.81
2018-09-09T19:19:19.352Z,24.84
2018-09-09T19:21:48.765Z,24.85
2018-09-09T19:24:18.146Z,24.72
2018-09-09T19:26:47.443Z,24.67
2018-09-09T19:29:16.648Z,24.50
2018-09-09T19:31:45.942Z,24.44
2018-09-09T19:34:15.309Z,24.38
2018-09-09T19:36:44.777Z,24.34
2018-09-09T19:39:14.132Z,24.30
2018-09-09T19:41:43.452Z,24.24
2018-09-09T19:44:12.589Z,24.24
2018-09-09T19:46:41.841Z,24.23
2018-09-09T19:49:11.253Z,24.25
2018-09-09T19:51:40.624Z,24.26
2018-09-09T19:54:10.138Z,24.21
2018-09-09T19:56:39.465Z,24.22
2018-09-09T19:59:08.566Z,24.23
2018-09-09T20:01:37.428Z,24.21
2018-09-09T20:04:06.528Z,24.22
2018-09-09T20:06:35.831Z,24.19
2018-09-09T20:09:06.104Z,24.20
2018-09-09T20:11:35.388Z,24.22
2018-09-09T20:14:04.966Z,24.25
2018-09-09T20:16:34.003Z,24.21
2018-09-09T20:19:03.050Z,24.13
2018-09-09T20:21:32.147Z,24.06
2018-09-09T20:24:01.479Z,24.08
2018-09-09T20:26:30.691Z,24.06
2018-09-09T20:28:59.716Z,24.02
2018-09-09T20:31:29.072Z,23.97
2018-09-09T20:33:58.024Z,23.98
2018-09-09T20:36:27.354Z,23.96
2018-09-09T20:38:56.321Z,23.94
2018-09-09T20:41:25.651Z,23.92
2018-09-09T20:43:55.026Z,23.88
2018-09-09T20:46:24.500Z,23.85
2018-09-09T20:48:54.003Z,23.80
2018-09-09T20:51:22.955Z,23.78
2018-09-09T20:53:52.235Z,23.77
2018-09-09T20:56:21.456Z,23.76
2018-09-09T20:58:50.986Z,23.70
2018-09-09T21:01:20.100Z,23.65
2018-09-09T21:03:49.388Z,23.59
2018-09-09T21:06:18.836Z,23.57
2018-09-09T21:08:48.035Z,23.53
2018-09-09T21:11:17.227Z,23.50
2018-09-09T21:13:46.476Z,23.50
2018-09-09T21:16:15.774Z,23.48
2018-09-09T21:18:45.048Z,23.40
2018-09-09T21:21:14.392Z,23.37
2018-09-09T21:23:43.830Z,23.28
2018-09-09T21:26:13.063Z,23.27
2018-09-09T21:28:42.457Z,23.25
2018-09-09T21:31:11.826Z,23.14
2018-09-09T21:33:41.136Z,23.11
2018-09-09T21:36:10.078Z,23.13
2018-09-09T21:38:39.407Z,23.09
2018-09-09T21:41:08.592Z,23.09
2018-09-09T21:43:38.024Z,23.05
2018-09-09T21:46:07.273Z,22.96
2018-09-09T21:48:36.515Z,22.90
2018-09-09T21:51:05.824Z,22.89
2018-09-09T21:53:35.030Z,22.87
2018-09-09T21:56:04.087Z,22.87
2018-09-09T21:58:33.324Z,22.91
2018-09-09T22:01:07.469Z,22.90
2018-09-09T22:03:36.850Z,22.92
2018-09-09T22:06:06.092Z,22.96
2018-09-09T22:08:35.373Z,22.95
2018-09-09T22:11:04.751Z,22.98
2018-09-09T22:13:34.070Z,22.98
2018-09-09T22:16:03.407Z,22.97
2018-09-09T22:18:32.939Z,22.96
2018-09-09T22:21:02.168Z,23.00
2018-09-09T22:23:31.405Z,22.98
2018-09-09T22:26:00.748Z,22.99
2018-09-09T22:28:29.863Z,23.00
2018-09-09T22:30:59.311Z,23.00
2018-09-09T22:33:28.707Z,23.03
2018-09-09T22:35:57.865Z,23.03
2018-09-09T22:38:27.184Z,23.03
2018-09-09T22:40:56.131Z,23.01
2018-09-09T22:43:25.348Z,23.03
2018-09-09T22:46:00.773Z,23.04
2018-09-09T22:48:30.074Z,23.04
2018-09-09T22:50:59.296Z,23.00
2018-09-09T22:53:28.556Z,23.01
2018-09-09T22:55:57.919Z,23.03
2018-09-09T22:58:27.390Z,23.02
2018-09-09T23:00:56.415Z,22.95
2018-09-09T23:03:25.797Z,22.93
2018-09-09T23:05:54.776Z,22.95
2018-09-09T23:08:23.948Z,22.94
2018-09-09T23:10:53.211Z,22.90
2018-09-09T23:13:22.519Z,22.89
2018-09-09T23:15:51.716Z,22.93
2018-09-09T23:18:20.930Z,22.90
2018-09-09T23:20:50.103Z,22.90
2018-09-09T23:23:19.113Z,22.89
2018-09-09T23:25:48.530Z,22.89
2018-09-09T23:28:17.716Z,22.91
2018-09-09T23:30:46.964Z,22.88
2018-09-09T23:33:16.417Z,22.87
2018-09-09T23:35:45.693Z,22.86
2018-09-09T23:38:14.707Z,22.84
2018-09-09T23:40:43.827Z,22.79
2018-09-09T23:43:13.174Z,22.77
2018-09-09T23:45:42.504Z,22.78
2018-09-09T23:48:11.921Z,22.76
2018-09-09T23:50:40.748Z,22.67
2018-09-09T23:53:09.840Z,22.62
2018-09-09T23:55:39.111Z,22.63
2018-09-09T23:58:08.323Z,22.57
